sensor_id;sensor_type;location;lat;lon;timestamp;P1;durP1;ratioP1;P2;durP2;ratioP2
50379;SDS011;37474;59.468;18.040;2023-04-01T00:01:24;2.92;;;1.77;;
50379;SDS011;37474;59.468;18.040;2023-04-01T00:03:55;4.47;;;1.70;;
50379;SDS011;37474;59.468;18.040;2023-04-01T00:06:25;3.03;;;1.57;;
50379;SDS011;37474;59.468;18.040;2023-04-01T00:08:55;2.92;;;1.90;;
50379;SDS011;37474;59.468;18.040;2023-04-01T00:11:24;5.07;;;1.60;;
50379;SDS011;37474;59.468;18.040;2023-04-01T00:13:55;2.87;;;1.87;;
50379;SDS011;37474;59.468;18.040;2023-04-01T00:16:23;3.38;;;1.77;;
50379;SDS011;37474;59.468;18.040;2023-04-01T00:18:53;3.15;;;1.90;;
50379;SDS011;37474;59.468;18.040;2023-04-01T00:21:21;3.73;;;1.70;;
50379;SDS011;37474;59.468;18.040;2023-04-01T00:23:49;5.93;;;2.00;;
50379;SDS011;37474;59.468;18.040;2023-04-01T00:26:22;4.20;;;2.10;;
50379;SDS011;37474;59.468;18.040;2023-04-01T00:28:51;5.30;;;1.90;;
50379;SDS011;37474;59.468;18.040;2023-04-01T00:31:19;2.37;;;1.60;;
50379;SDS011;37474;59.468;18.040;2023-04-01T00:33:51;3.00;;;1.85;;
50379;SDS011;37474;59.468;18.040;2023-04-01T00:38:49;3.67;;;2.10;;
50379;SDS011;37474;59.468;18.040;2023-04-01T00:41:22;3.30;;;2.42;;
50379;SDS011;37474;59.468;18.040;2023-04-01T00:43:52;3.90;;;1.90;;
50379;SDS011;37474;59.468;18.040;2023-04-01T00:46:24;2.90;;;1.83;;
50379;SDS011;37474;59.468;18.040;2023-04-01T00:48:53;5.35;;;2.35;;
50379;SDS011;37474;59.468;18.040;2023-04-01T00:51:24;7.63;;;2.03;;
50379;SDS011;37474;59.468;18.040;2023-04-01T00:53:58;4.13;;;2.10;;
50379;SDS011;37474;59.468;18.040;2023-04-01T00:56:33;7.93;;;1.90;;
50379;SDS011;37474;59.468;18.040;2023-04-01T00:59:08;3.57;;;1.87;;
50379;SDS011;37474;59.468;18.040;2023-04-01T01:01:41;3.20;;;1.80;;
50379;SDS011;37474;59.468;18.040;2023-04-01T01:04:24;5.37;;;2.13;;
50379;SDS011;37474;59.468;18.040;2023-04-01T01:06:56;4.63;;;1.87;;
50379;SDS011;37474;59.468;18.040;2023-04-01T01:09:39;4.20;;;2.10;;
50379;SDS011;37474;59.468;18.040;2023-04-01T01:12:15;2.97;;;1.97;;
50379;SDS011;37474;59.468;18.040;2023-04-01T01:14:57;6.23;;;2.23;;
50379;SDS011;37474;59.468;18.040;2023-04-01T01:17:32;3.73;;;2.10;;
50379;SDS011;37474;59.468;18.040;2023-04-01T01:26:28;3.55;;;2.20;;
50379;SDS011;37474;59.468;18.040;2023-04-01T01:29:23;3.70;;;2.10;;
50379;SDS011;37474;59.468;18.040;2023-04-01T01:32:25;2.67;;;1.90;;
50379;SDS011;37474;59.468;18.040;2023-04-01T01:37:55;7.00;;;2.63;;
50379;SDS011;37474;59.468;18.040;2023-04-01T01:40:28;6.53;;;2.60;;
50379;SDS011;37474;59.468;18.040;2023-04-01T01:43:03;4.57;;;2.17;;
50379;SDS011;37474;59.468;18.040;2023-04-01T01:45:40;4.13;;;1.90;;
50379;SDS011;37474;59.468;18.040;2023-04-01T01:48:15;4.97;;;2.57;;
50379;SDS011;37474;59.468;18.040;2023-04-01T01:50:48;4.95;;;2.70;;
50379;SDS011;37474;59.468;18.040;2023-04-01T01:53:19;5.00;;;2.40;;
50379;SDS011;37474;59.468;18.040;2023-04-01T01:55:47;9.73;;;2.50;;
50379;SDS011;37474;59.468;18.040;2023-04-01T01:58:22;3.50;;;2.10;;
50379;SDS011;37474;59.468;18.040;2023-04-01T02:00:57;4.63;;;2.57;;
50379;SDS011;37474;59.468;18.040;2023-04-01T02:03:28;5.73;;;2.20;;
50379;SDS011;37474;59.468;18.040;2023-04-01T02:06:05;4.77;;;2.13;;
50379;SDS011;37474;59.468;18.040;2023-04-01T02:08:36;5.07;;;2.20;;
50379;SDS011;37474;59.468;18.040;2023-04-01T02:11:10;4.50;;;2.13;;
50379;SDS011;37474;59.468;18.040;2023-04-01T02:13:42;2.97;;;1.80;;
50379;SDS011;37474;59.468;18.040;2023-04-01T02:16:18;5.67;;;2.30;;
50379;SDS011;37474;59.468;18.040;2023-04-01T02:18:51;3.77;;;1.97;;
50379;SDS011;37474;59.468;18.040;2023-04-01T02:21:26;3.97;;;2.40;;
50379;SDS011;37474;59.468;18.040;2023-04-01T02:23:58;6.23;;;2.03;;
50379;SDS011;37474;59.468;18.040;2023-04-01T02:26:32;4.77;;;2.13;;
50379;SDS011;37474;59.468;18.040;2023-04-01T02:29:01;3.37;;;2.20;;
50379;SDS011;37474;59.468;18.040;2023-04-01T02:31:31;4.13;;;2.33;;
50379;SDS011;37474;59.468;18.040;2023-04-01T02:34:04;4.77;;;2.20;;
50379;SDS011;37474;59.468;18.040;2023-04-01T02:39:05;2.77;;;1.80;;
50379;SDS011;37474;59.468;18.040;2023-04-01T02:41:38;3.10;;;2.03;;
50379;SDS011;37474;59.468;18.040;2023-04-01T02:44:08;4.10;;;1.90;;
50379;SDS011;37474;59.468;18.040;2023-04-01T02:46:37;5.30;;;2.42;;
50379;SDS011;37474;59.468;18.040;2023-04-01T02:49:07;3.63;;;2.05;;
50379;SDS011;37474;59.468;18.040;2023-04-01T02:51:40;3.67;;;2.40;;
50379;SDS011;37474;59.468;18.040;2023-04-01T02:54:10;5.67;;;2.00;;
50379;SDS011;37474;59.468;18.040;2023-04-01T02:56:42;3.60;;;2.07;;
50379;SDS011;37474;59.468;18.040;2023-04-01T02:59:11;4.72;;;2.35;;
50379;SDS011;37474;59.468;18.040;2023-04-01T03:01:39;3.53;;;2.20;;
50379;SDS011;37474;59.468;18.040;2023-04-01T03:04:11;5.38;;;2.25;;
50379;SDS011;37474;59.468;18.040;2023-04-01T03:06:40;5.80;;;2.30;;
50379;SDS011;37474;59.468;18.040;2023-04-01T03:09:08;4.03;;;2.38;;
50379;SDS011;37474;59.468;18.040;2023-04-01T03:11:40;4.30;;;2.35;;
50379;SDS011;37474;59.468;18.040;2023-04-01T03:14:07;5.97;;;2.55;;
50379;SDS011;37474;59.468;18.040;2023-04-01T03:16:35;3.37;;;2.10;;
50379;SDS011;37474;59.468;18.040;2023-04-01T03:19:07;4.22;;;2.15;;
50379;SDS011;37474;59.468;18.040;2023-04-01T03:21:35;5.33;;;2.27;;
50379;SDS011;37474;59.468;18.040;2023-04-01T03:24:05;4.38;;;2.22;;
50379;SDS011;37474;59.468;18.040;2023-04-01T03:26:38;5.88;;;2.50;;
50379;SDS011;37474;59.468;18.040;2023-04-01T03:31:33;3.83;;;1.97;;
50379;SDS011;37474;59.468;18.040;2023-04-01T03:34:05;4.32;;;1.75;;
50379;SDS011;37474;59.468;18.040;2023-04-01T03:36:33;5.20;;;2.00;;
50379;SDS011;37474;59.468;18.040;2023-04-01T03:39:01;2.60;;;1.90;;
50379;SDS011;37474;59.468;18.040;2023-04-01T03:41:35;3.95;;;1.95;;
50379;SDS011;37474;59.468;18.040;2023-04-01T03:44:03;3.03;;;1.95;;
50379;SDS011;37474;59.468;18.040;2023-04-01T03:46:31;2.97;;;1.90;;
50379;SDS011;37474;59.468;18.040;2023-04-01T03:49:05;2.83;;;1.88;;
50379;SDS011;37474;59.468;18.040;2023-04-01T03:51:37;5.22;;;2.10;;
50379;SDS011;37474;59.468;18.040;2023-04-01T03:54:10;3.83;;;2.10;;
50379;SDS011;37474;59.468;18.040;2023-04-01T03:56:39;5.40;;;2.30;;
50379;SDS011;37474;59.468;18.040;2023-04-01T03:59:07;4.05;;;1.95;;
50379;SDS011;37474;59.468;18.040;2023-04-01T04:01:39;4.30;;;2.17;;
50379;SDS011;37474;59.468;18.040;2023-04-01T04:04:07;2.45;;;1.73;;
50379;SDS011;37474;59.468;18.040;2023-04-01T04:06:34;3.90;;;1.88;;
50379;SDS011;37474;59.468;18.040;2023-04-01T04:09:07;3.63;;;1.90;;
50379;SDS011;37474;59.468;18.040;2023-04-01T04:11:36;3.70;;;2.00;;
50379;SDS011;37474;59.468;18.040;2023-04-01T04:14:05;3.50;;;1.90;;
50379;SDS011;37474;59.468;18.040;2023-04-01T04:16:35;4.65;;;1.90;;
50379;SDS011;37474;59.468;18.040;2023-04-01T04:19:05;5.80;;;1.80;;
50379;SDS011;37474;59.468;18.040;2023-04-01T04:21:39;3.53;;;2.10;;
50379;SDS011;37474;59.468;18.040;2023-04-01T04:24:11;3.28;;;1.63;;
50379;SDS011;37474;59.468;18.040;2023-04-01T04:26:42;5.32;;;2.20;;
50379;SDS011;37474;59.468;18.040;2023-04-01T04:29:11;5.40;;;2.30;;
50379;SDS011;37474;59.468;18.040;2023-04-01T04:31:43;4.95;;;2.20;;
50379;SDS011;37474;59.468;18.040;2023-04-01T04:36:38;4.75;;;1.92;;
50379;SDS011;37474;59.468;18.040;2023-04-01T04:39:12;5.72;;;1.85;;
50379;SDS011;37474;59.468;18.040;2023-04-01T04:41:42;4.82;;;1.77;;
50379;SDS011;37474;59.468;18.040;2023-04-01T04:44:12;3.65;;;2.20;;
50379;SDS011;37474;59.468;18.040;2023-04-01T04:46:43;2.85;;;1.48;;
50379;SDS011;37474;59.468;18.040;2023-04-01T04:49:11;3.58;;;1.90;;
50379;SDS011;37474;59.468;18.040;2023-04-01T04:51:39;3.40;;;2.00;;
50379;SDS011;37474;59.468;18.040;2023-04-01T04:54:12;4.80;;;2.20;;
50379;SDS011;37474;59.468;18.040;2023-04-01T04:56:41;6.45;;;1.85;;
50379;SDS011;37474;59.468;18.040;2023-04-01T04:59:09;3.60;;;2.22;;
50379;SDS011;37474;59.468;18.040;2023-04-01T05:01:44;4.80;;;2.00;;
50379;SDS011;37474;59.468;18.040;2023-04-01T05:04:12;3.35;;;2.05;;
50379;SDS011;37474;59.468;18.040;2023-04-01T05:06:39;7.63;;;2.42;;
50379;SDS011;37474;59.468;18.040;2023-04-01T05:09:12;4.60;;;2.20;;
50379;SDS011;37474;59.468;18.040;2023-04-01T05:11:44;5.90;;;3.28;;
50379;SDS011;37474;59.468;18.040;2023-04-01T05:14:12;7.75;;;3.10;;
50379;SDS011;37474;59.468;18.040;2023-04-01T05:16:44;7.10;;;2.63;;
50379;SDS011;37474;59.468;18.040;2023-04-01T05:19:12;3.77;;;2.30;;
50379;SDS011;37474;59.468;18.040;2023-04-01T05:21:44;5.40;;;2.50;;
50379;SDS011;37474;59.468;18.040;2023-04-01T05:24:12;4.90;;;2.25;;
50379;SDS011;37474;59.468;18.040;2023-04-01T05:26:39;6.97;;;2.40;;
50379;SDS011;37474;59.468;18.040;2023-04-01T05:29:11;4.13;;;2.20;;
50379;SDS011;37474;59.468;18.040;2023-04-01T05:31:39;5.22;;;2.70;;
50379;SDS011;37474;59.468;18.040;2023-04-01T05:34:08;5.47;;;2.33;;
50379;SDS011;37474;59.468;18.040;2023-04-01T05:36:41;4.93;;;2.70;;
50379;SDS011;37474;59.468;18.040;2023-04-01T05:39:10;3.60;;;2.23;;
50379;SDS011;37474;59.468;18.040;2023-04-01T05:41:38;3.37;;;2.10;;
50379;SDS011;37474;59.468;18.040;2023-04-01T05:44:10;8.02;;;2.35;;
50379;SDS011;37474;59.468;18.040;2023-04-01T05:46:39;4.40;;;1.93;;
50379;SDS011;37474;59.468;18.040;2023-04-01T05:49:08;6.80;;;2.40;;
50379;SDS011;37474;59.468;18.040;2023-04-01T05:51:42;4.27;;;2.10;;
50379;SDS011;37474;59.468;18.040;2023-04-01T05:54:10;5.45;;;2.13;;
50379;SDS011;37474;59.468;18.040;2023-04-01T05:56:38;4.30;;;1.90;;
50379;SDS011;37474;59.468;18.040;2023-04-01T05:59:10;3.08;;;2.00;;
50379;SDS011;37474;59.468;18.040;2023-04-01T06:01:39;3.00;;;1.87;;
50379;SDS011;37474;59.468;18.040;2023-04-01T06:04:10;4.03;;;2.13;;
50379;SDS011;37474;59.468;18.040;2023-04-01T06:06:43;5.97;;;2.00;;
50379;SDS011;37474;59.468;18.040;2023-04-01T06:09:13;5.37;;;2.10;;
50379;SDS011;37474;59.468;18.040;2023-04-01T06:11:46;3.03;;;1.93;;
50379;SDS011;37474;59.468;18.040;2023-04-01T06:14:30;4.93;;;2.00;;
50379;SDS011;37474;59.468;18.040;2023-04-01T06:17:13;2.90;;;1.55;;
50379;SDS011;37474;59.468;18.040;2023-04-01T06:19:56;3.20;;;1.60;;
50379;SDS011;37474;59.468;18.040;2023-04-01T06:22:37;4.47;;;1.60;;
50379;SDS011;37474;59.468;18.040;2023-04-01T06:25:26;3.63;;;1.60;;
50379;SDS011;37474;59.468;18.040;2023-04-01T06:28:07;6.27;;;1.90;;
50379;SDS011;37474;59.468;18.040;2023-04-01T06:31:00;2.60;;;1.73;;
50379;SDS011;37474;59.468;18.040;2023-04-01T06:33:36;4.43;;;1.60;;
50379;SDS011;37474;59.468;18.040;2023-04-01T06:36:38;2.80;;;1.43;;
50379;SDS011;37474;59.468;18.040;2023-04-01T06:39:17;3.60;;;1.70;;
50379;SDS011;37474;59.468;18.040;2023-04-01T06:42:01;2.97;;;1.40;;
50379;SDS011;37474;59.468;18.040;2023-04-01T06:44:44;3.80;;;1.70;;
50379;SDS011;37474;59.468;18.040;2023-04-01T06:47:25;2.60;;;1.48;;
50379;SDS011;37474;59.468;18.040;2023-04-01T06:50:05;5.13;;;1.65;;
50379;SDS011;37474;59.468;18.040;2023-04-01T06:52:48;4.67;;;1.67;;
50379;SDS011;37474;59.468;18.040;2023-04-01T06:55:26;4.37;;;1.73;;
50379;SDS011;37474;59.468;18.040;2023-04-01T06:57:59;3.57;;;1.80;;
50379;SDS011;37474;59.468;18.040;2023-04-01T07:00:31;3.07;;;1.80;;
50379;SDS011;37474;59.468;18.040;2023-04-01T07:03:05;3.63;;;1.50;;
50379;SDS011;37474;59.468;18.040;2023-04-01T07:05:43;3.30;;;1.38;;
50379;SDS011;37474;59.468;18.040;2023-04-01T07:08:13;4.83;;;1.60;;
50379;SDS011;37474;59.468;18.040;2023-04-01T07:10:45;4.47;;;1.40;;
50379;SDS011;37474;59.468;18.040;2023-04-01T07:13:18;5.50;;;1.73;;
50379;SDS011;37474;59.468;18.040;2023-04-01T07:15:54;2.67;;;1.50;;
50379;SDS011;37474;59.468;18.040;2023-04-01T07:18:29;3.17;;;1.93;;
50379;SDS011;37474;59.468;18.040;2023-04-01T07:21:03;3.00;;;1.40;;
50379;SDS011;37474;59.468;18.040;2023-04-01T07:23:38;3.33;;;1.33;;
50379;SDS011;37474;59.468;18.040;2023-04-01T07:26:16;2.70;;;1.20;;
50379;SDS011;37474;59.468;18.040;2023-04-01T07:28:49;4.63;;;1.20;;
50379;SDS011;37474;59.468;18.040;2023-04-01T07:34:30;6.23;;;1.37;;
50379;SDS011;37474;59.468;18.040;2023-04-01T07:37:06;5.27;;;1.50;;
50379;SDS011;37474;59.468;18.040;2023-04-01T07:39:41;5.90;;;1.60;;
50379;SDS011;37474;59.468;18.040;2023-04-01T07:42:21;4.25;;;1.15;;
50379;SDS011;37474;59.468;18.040;2023-04-01T07:44:59;9.07;;;1.97;;
50379;SDS011;37474;59.468;18.040;2023-04-01T07:47:39;6.97;;;2.73;;
50379;SDS011;37474;59.468;18.040;2023-04-01T07:50:18;4.10;;;1.20;;
50379;SDS011;37474;59.468;18.040;2023-04-01T07:52:56;3.80;;;1.13;;
50379;SDS011;37474;59.468;18.040;2023-04-01T07:55:35;4.60;;;1.30;;
50379;SDS011;37474;59.468;18.040;2023-04-01T07:58:14;3.60;;;1.10;;
50379;SDS011;37474;59.468;18.040;2023-04-01T08:00:54;4.97;;;1.10;;
50379;SDS011;37474;59.468;18.040;2023-04-01T08:03:31;1.93;;;1.00;;
50379;SDS011;37474;59.468;18.040;2023-04-01T08:06:10;5.23;;;1.13;;
50379;SDS011;37474;59.468;18.040;2023-04-01T08:08:52;2.33;;;0.80;;
50379;SDS011;37474;59.468;18.040;2023-04-01T08:11:34;3.87;;;1.20;;
50379;SDS011;37474;59.468;18.040;2023-04-01T08:14:16;5.70;;;1.37;;
50379;SDS011;37474;59.468;18.040;2023-04-01T08:16:52;1.83;;;0.90;;
50379;SDS011;37474;59.468;18.040;2023-04-01T08:19:34;3.70;;;0.90;;
50379;SDS011;37474;59.468;18.040;2023-04-01T08:22:19;1.90;;;0.90;;
50379;SDS011;37474;59.468;18.040;2023-04-01T08:24:54;2.70;;;0.80;;
50379;SDS011;37474;59.468;18.040;2023-04-01T08:27:34;3.53;;;0.97;;
50379;SDS011;37474;59.468;18.040;2023-04-01T08:30:15;3.40;;;0.70;;
50379;SDS011;37474;59.468;18.040;2023-04-01T08:32:49;2.37;;;0.77;;
50379;SDS011;37474;59.468;18.040;2023-04-01T08:35:26;1.80;;;0.77;;
50379;SDS011;37474;59.468;18.040;2023-04-01T08:38:01;2.57;;;0.90;;
50379;SDS011;37474;59.468;18.040;2023-04-01T08:40:46;4.23;;;0.60;;
50379;SDS011;37474;59.468;18.040;2023-04-01T08:46:36;4.37;;;0.80;;
50379;SDS011;37474;59.468;18.040;2023-04-01T08:49:26;4.60;;;1.00;;
50379;SDS011;37474;59.468;18.040;2023-04-01T08:55:01;1.67;;;0.57;;
50379;SDS011;37474;59.468;18.040;2023-04-01T08:57:49;1.47;;;0.60;;
50379;SDS011;37474;59.468;18.040;2023-04-01T09:00:37;2.33;;;1.03;;
50379;SDS011;37474;59.468;18.040;2023-04-01T09:03:14;2.07;;;0.80;;
50379;SDS011;37474;59.468;18.040;2023-04-01T09:06:25;1.20;;;0.50;;
50379;SDS011;37474;59.468;18.040;2023-04-01T09:09:10;4.93;;;1.20;;
50379;SDS011;37474;59.468;18.040;2023-04-01T09:12:02;3.40;;;0.80;;
50379;SDS011;37474;59.468;18.040;2023-04-01T09:14:53;2.30;;;0.57;;
50379;SDS011;37474;59.468;18.040;2023-04-01T09:17:44;3.03;;;0.63;;
50379;SDS011;37474;59.468;18.040;2023-04-01T09:20:33;1.73;;;0.70;;
50379;SDS011;37474;59.468;18.040;2023-04-01T09:23:17;1.47;;;0.60;;
50379;SDS011;37474;59.468;18.040;2023-04-01T09:26:22;6.13;;;1.17;;
50379;SDS011;37474;59.468;18.040;2023-04-01T09:29:18;3.37;;;0.70;;
50379;SDS011;37474;59.468;18.040;2023-04-01T09:32:01;2.87;;;0.63;;
50379;SDS011;37474;59.468;18.040;2023-04-01T09:34:57;3.13;;;0.67;;
50379;SDS011;37474;59.468;18.040;2023-04-01T09:37:51;3.90;;;1.07;;
50379;SDS011;37474;59.468;18.040;2023-04-01T09:40:23;2.97;;;0.80;;
50379;SDS011;37474;59.468;18.040;2023-04-01T09:43:06;1.33;;;1.02;;
50379;SDS011;37474;59.468;18.040;2023-04-01T09:45:51;2.20;;;0.60;;
50379;SDS011;37474;59.468;18.040;2023-04-01T09:48:33;1.65;;;0.60;;
50379;SDS011;37474;59.468;18.040;2023-04-01T09:51:16;1.50;;;0.50;;
50379;SDS011;37474;59.468;18.040;2023-04-01T09:53:57;3.10;;;0.60;;
50379;SDS011;37474;59.468;18.040;2023-04-01T10:02:29;2.58;;;0.80;;
50379;SDS011;37474;59.468;18.040;2023-04-01T10:08:47;1.10;;;0.50;;
50379;SDS011;37474;59.468;18.040;2023-04-01T10:11:57;3.20;;;0.40;;
50379;SDS011;37474;59.468;18.040;2023-04-01T10:24:14;1.10;;;0.30;;
50379;SDS011;37474;59.468;18.040;2023-04-01T10:27:02;0.90;;;0.40;;
50379;SDS011;37474;59.468;18.040;2023-04-01T10:30:03;1.73;;;0.30;;
50379;SDS011;37474;59.468;18.040;2023-04-01T10:42:13;2.07;;;0.60;;
50379;SDS011;37474;59.468;18.040;2023-04-01T10:45:25;1.87;;;0.43;;
50379;SDS011;37474;59.468;18.040;2023-04-01T10:48:23;2.80;;;0.40;;
50379;SDS011;37474;59.468;18.040;2023-04-01T10:54:33;1.23;;;0.80;;
50379;SDS011;37474;59.468;18.040;2023-04-01T10:57:23;2.43;;;0.37;;
50379;SDS011;37474;59.468;18.040;2023-04-01T11:09:35;1.63;;;0.40;;
50379;SDS011;37474;59.468;18.040;2023-04-01T11:12:39;0.80;;;0.40;;
50379;SDS011;37474;59.468;18.040;2023-04-01T11:15:26;1.70;;;0.30;;
50379;SDS011;37474;59.468;18.040;2023-04-01T11:21:38;0.80;;;0.20;;
50379;SDS011;37474;59.468;18.040;2023-04-01T11:27:39;1.13;;;0.40;;
50379;SDS011;37474;59.468;18.040;2023-04-01T11:30:20;0.50;;;0.30;;
50379;SDS011;37474;59.468;18.040;2023-04-01T11:32:59;0.20;;;0.20;;
50379;SDS011;37474;59.468;18.040;2023-04-01T11:35:34;1.17;;;0.20;;
50379;SDS011;37474;59.468;18.040;2023-04-01T11:38:24;0.40;;;0.20;;
50379;SDS011;37474;59.468;18.040;2023-04-01T11:41:07;2.50;;;0.33;;
50379;SDS011;37474;59.468;18.040;2023-04-01T11:43:54;0.43;;;0.30;;
50379;SDS011;37474;59.468;18.040;2023-04-01T11:46:39;0.97;;;0.30;;
50379;SDS011;37474;59.468;18.040;2023-04-01T11:49:18;0.53;;;0.20;;
50379;SDS011;37474;59.468;18.040;2023-04-01T11:52:12;0.27;;;0.20;;
50379;SDS011;37474;59.468;18.040;2023-04-01T11:57:51;1.47;;;0.17;;
50379;SDS011;37474;59.468;18.040;2023-04-01T12:00:55;0.93;;;0.20;;
50379;SDS011;37474;59.468;18.040;2023-04-01T12:03:38;0.67;;;0.23;;
50379;SDS011;37474;59.468;18.040;2023-04-01T12:06:30;0.30;;;0.20;;
50379;SDS011;37474;59.468;18.040;2023-04-01T12:09:09;1.50;;;0.33;;
50379;SDS011;37474;59.468;18.040;2023-04-01T12:11:48;0.40;;;0.20;;
50379;SDS011;37474;59.468;18.040;2023-04-01T12:14:30;1.47;;;0.30;;
50379;SDS011;37474;59.468;18.040;2023-04-01T12:17:15;1.60;;;0.30;;
50379;SDS011;37474;59.468;18.040;2023-04-01T12:19:59;0.73;;;0.20;;
50379;SDS011;37474;59.468;18.040;2023-04-01T12:22:45;1.27;;;0.20;;
50379;SDS011;37474;59.468;18.040;2023-04-01T12:25:26;1.33;;;0.30;;
50379;SDS011;37474;59.468;18.040;2023-04-01T12:28:10;2.57;;;0.40;;
50379;SDS011;37474;59.468;18.040;2023-04-01T12:30:52;1.77;;;0.30;;
50379;SDS011;37474;59.468;18.040;2023-04-01T12:33:32;2.40;;;0.40;;
50379;SDS011;37474;59.468;18.040;2023-04-01T12:36:13;2.13;;;0.50;;
50379;SDS011;37474;59.468;18.040;2023-04-01T12:39:00;1.20;;;0.30;;
50379;SDS011;37474;59.468;18.040;2023-04-01T12:41:47;0.57;;;0.20;;
50379;SDS011;37474;59.468;18.040;2023-04-01T12:44:39;2.63;;;0.40;;
50379;SDS011;37474;59.468;18.040;2023-04-01T12:47:26;0.60;;;0.30;;
50379;SDS011;37474;59.468;18.040;2023-04-01T12:53:22;3.63;;;0.40;;
50379;SDS011;37474;59.468;18.040;2023-04-01T12:56:01;0.87;;;0.30;;
50379;SDS011;37474;59.468;18.040;2023-04-01T13:04:37;2.13;;;0.20;;
50379;SDS011;37474;59.468;18.040;2023-04-01T13:07:21;1.23;;;0.40;;
50379;SDS011;37474;59.468;18.040;2023-04-01T13:10:01;0.50;;;0.30;;
50379;SDS011;37474;59.468;18.040;2023-04-01T13:12:48;3.00;;;0.40;;
50379;SDS011;37474;59.468;18.040;2023-04-01T13:15:28;1.83;;;0.20;;
50379;SDS011;37474;59.468;18.040;2023-04-01T13:18:11;1.25;;;0.40;;
50379;SDS011;37474;59.468;18.040;2023-04-01T13:20:49;1.57;;;0.40;;
50379;SDS011;37474;59.468;18.040;2023-04-01T13:23:33;3.10;;;0.30;;
50379;SDS011;37474;59.468;18.040;2023-04-01T13:26:13;1.63;;;0.30;;
50379;SDS011;37474;59.468;18.040;2023-04-01T13:28:52;0.27;;;0.20;;
50379;SDS011;37474;59.468;18.040;2023-04-01T13:31:38;1.43;;;0.30;;
50379;SDS011;37474;59.468;18.040;2023-04-01T13:34:20;0.97;;;0.30;;
50379;SDS011;37474;59.468;18.040;2023-04-01T13:37:02;0.97;;;0.23;;
50379;SDS011;37474;59.468;18.040;2023-04-01T13:39:54;1.87;;;0.33;;
50379;SDS011;37474;59.468;18.040;2023-04-01T13:42:31;1.33;;;0.60;;
50379;SDS011;37474;59.468;18.040;2023-04-01T13:45:09;0.57;;;0.30;;
50379;SDS011;37474;59.468;18.040;2023-04-01T13:47:55;1.55;;;0.28;;
50379;SDS011;37474;59.468;18.040;2023-04-01T13:53:38;2.03;;;0.40;;
50379;SDS011;37474;59.468;18.040;2023-04-01T13:56:22;1.90;;;0.57;;
50379;SDS011;37474;59.468;18.040;2023-04-01T13:59:07;2.10;;;0.40;;
50379;SDS011;37474;59.468;18.040;2023-04-01T14:01:54;1.70;;;0.35;;
50379;SDS011;37474;59.468;18.040;2023-04-01T14:04:46;0.90;;;0.27;;
50379;SDS011;37474;59.468;18.040;2023-04-01T14:07:31;1.40;;;0.47;;
50379;SDS011;37474;59.468;18.040;2023-04-01T14:10:18;1.60;;;0.20;;
50379;SDS011;37474;59.468;18.040;2023-04-01T14:12:57;2.10;;;0.30;;
50379;SDS011;37474;59.468;18.040;2023-04-01T14:15:32;1.90;;;0.23;;
50379;SDS011;37474;59.468;18.040;2023-04-01T14:18:13;2.07;;;0.53;;
50379;SDS011;37474;59.468;18.040;2023-04-01T14:23:59;1.30;;;0.30;;
50379;SDS011;37474;59.468;18.040;2023-04-01T14:26:56;3.23;;;0.30;;
50379;SDS011;37474;59.468;18.040;2023-04-01T14:29:46;0.53;;;0.30;;
50379;SDS011;37474;59.468;18.040;2023-04-01T14:32:27;2.10;;;0.40;;
50379;SDS011;37474;59.468;18.040;2023-04-01T14:35:12;1.13;;;0.30;;
50379;SDS011;37474;59.468;18.040;2023-04-01T14:38:04;0.97;;;0.37;;
50379;SDS011;37474;59.468;18.040;2023-04-01T14:43:59;1.93;;;0.50;;
50379;SDS011;37474;59.468;18.040;2023-04-01T14:46:55;2.40;;;0.30;;
50379;SDS011;37474;59.468;18.040;2023-04-01T14:49:39;1.23;;;0.40;;
50379;SDS011;37474;59.468;18.040;2023-04-01T14:52:13;2.40;;;0.50;;
50379;SDS011;37474;59.468;18.040;2023-04-01T14:54:49;1.60;;;0.40;;
50379;SDS011;37474;59.468;18.040;2023-04-01T14:57:23;1.93;;;0.37;;
50379;SDS011;37474;59.468;18.040;2023-04-01T14:59:53;0.87;;;0.40;;
50379;SDS011;37474;59.468;18.040;2023-04-01T15:02:36;1.87;;;0.40;;
50379;SDS011;37474;59.468;18.040;2023-04-01T15:05:15;1.07;;;0.23;;
50379;SDS011;37474;59.468;18.040;2023-04-01T15:08:12;1.70;;;0.50;;
50379;SDS011;37474;59.468;18.040;2023-04-01T15:14:02;1.23;;;0.50;;
50379;SDS011;37474;59.468;18.040;2023-04-01T15:16:49;1.17;;;0.30;;
50379;SDS011;37474;59.468;18.040;2023-04-01T15:19:36;2.87;;;0.50;;
50379;SDS011;37474;59.468;18.040;2023-04-01T15:22:15;0.40;;;0.20;;
50379;SDS011;37474;59.468;18.040;2023-04-01T15:25:18;1.70;;;0.40;;
50379;SDS011;37474;59.468;18.040;2023-04-01T15:27:59;3.58;;;0.50;;
50379;SDS011;37474;59.468;18.040;2023-04-01T15:30:39;1.00;;;0.40;;
50379;SDS011;37474;59.468;18.040;2023-04-01T15:33:18;2.93;;;0.50;;
50379;SDS011;37474;59.468;18.040;2023-04-01T15:35:56;1.00;;;0.30;;
50379;SDS011;37474;59.468;18.040;2023-04-01T15:38:33;1.43;;;0.33;;
50379;SDS011;37474;59.468;18.040;2023-04-01T15:41:11;0.90;;;0.30;;
50379;SDS011;37474;59.468;18.040;2023-04-01T15:43:43;1.13;;;0.33;;
50379;SDS011;37474;59.468;18.040;2023-04-01T15:46:19;3.50;;;0.43;;
50379;SDS011;37474;59.468;18.040;2023-04-01T15:49:00;1.67;;;0.40;;
50379;SDS011;37474;59.468;18.040;2023-04-01T15:51:45;2.90;;;0.60;;
50379;SDS011;37474;59.468;18.040;2023-04-01T15:54:27;3.70;;;0.57;;
50379;SDS011;37474;59.468;18.040;2023-04-01T15:57:20;4.37;;;0.50;;
50379;SDS011;37474;59.468;18.040;2023-04-01T16:00:08;1.77;;;0.60;;
50379;SDS011;37474;59.468;18.040;2023-04-01T16:02:44;2.50;;;0.60;;
50379;SDS011;37474;59.468;18.040;2023-04-01T16:05:25;1.87;;;0.80;;
50379;SDS011;37474;59.468;18.040;2023-04-01T16:08:11;2.60;;;0.50;;
50379;SDS011;37474;59.468;18.040;2023-04-01T16:10:58;2.03;;;0.70;;
50379;SDS011;37474;59.468;18.040;2023-04-01T16:13:42;2.77;;;0.60;;
50379;SDS011;37474;59.468;18.040;2023-04-01T16:21:53;2.70;;;0.63;;
50379;SDS011;37474;59.468;18.040;2023-04-01T16:24:32;2.93;;;0.60;;
50379;SDS011;37474;59.468;18.040;2023-04-01T16:27:03;2.47;;;0.67;;
50379;SDS011;37474;59.468;18.040;2023-04-01T16:29:38;3.53;;;0.50;;
50379;SDS011;37474;59.468;18.040;2023-04-01T16:32:18;2.23;;;0.40;;
50379;SDS011;37474;59.468;18.040;2023-04-01T16:35:01;0.93;;;0.40;;
50379;SDS011;37474;59.468;18.040;2023-04-01T16:37:52;7.33;;;0.83;;
50379;SDS011;37474;59.468;18.040;2023-04-01T16:40:42;1.03;;;0.40;;
50379;SDS011;37474;59.468;18.040;2023-04-01T16:48:58;2.57;;;0.70;;
50379;SDS011;37474;59.468;18.040;2023-04-01T16:51:36;2.83;;;0.80;;
50379;SDS011;37474;59.468;18.040;2023-04-01T16:54:11;4.40;;;0.90;;
50379;SDS011;37474;59.468;18.040;2023-04-01T16:56:49;3.03;;;0.77;;
50379;SDS011;37474;59.468;18.040;2023-04-01T16:59:23;2.53;;;0.93;;
50379;SDS011;37474;59.468;18.040;2023-04-01T17:01:57;3.77;;;0.90;;
50379;SDS011;37474;59.468;18.040;2023-04-01T17:04:32;4.07;;;0.70;;
50379;SDS011;37474;59.468;18.040;2023-04-01T17:07:11;4.83;;;1.20;;
50379;SDS011;37474;59.468;18.040;2023-04-01T17:09:51;4.97;;;1.00;;
50379;SDS011;37474;59.468;18.040;2023-04-01T17:12:35;8.27;;;1.20;;
50379;SDS011;37474;59.468;18.040;2023-04-01T17:15:12;5.93;;;0.97;;
50379;SDS011;37474;59.468;18.040;2023-04-01T17:17:53;9.00;;;1.30;;
50379;SDS011;37474;59.468;18.040;2023-04-01T17:20:45;7.77;;;1.17;;
50379;SDS011;37474;59.468;18.040;2023-04-01T17:23:27;3.47;;;1.00;;
50379;SDS011;37474;59.468;18.040;2023-04-01T17:26:11;7.33;;;1.40;;
50379;SDS011;37474;59.468;18.040;2023-04-01T17:28:52;8.10;;;1.27;;
50379;SDS011;37474;59.468;18.040;2023-04-01T17:31:37;4.73;;;1.50;;